Fort Yukon, AK

10:20 AM AKDT on April 28, 2017 (GMT -0800)
Fort Yukon

Weather History for PFYU - November, 2012

Change the Weather History Date:

Saturday, November 3, 2012

  Actual Average Record
Temperature  
Mean Temperature 9 °F -  
Max Temperature 12 °F 8 °F 26 °F (2002)
Min Temperature 6 °F -1 °F -25 °F (1999)
Degree Days  
Heating Degree Days 56    
Moisture  
Dew Point 4 °F    
Average Humidity 73    
Maximum Humidity 100    
Minimum Humidity 57    
Precipitation  
Precipitation 0.00 in - - ()
Sea Level Pressure  
Sea Level Pressure 29.87 in    
Wind  
Wind Speed 14 mph (NE)    
Max Wind Speed 20 mph    
Max Gust Speed 30 mph    
Visibility 9 miles    
Events      
Averages and records for this station are not official NWS values.
T = Trace of Precipitation, MM = Missing Value Source: NWS Daily Summary

Daily Weather History Graph

Daily Weather History Graph

Search for Another Location

Airport or City:

Trip Planner

Search our weather history database for the weather conditions in past years. The results will help you decide how hot, cold, wet, or windy it might be!

Date:

Astronomy

Nov. 03, 2012 Rise Set
Actual Time 9:50 AM AKDT 4:57 PM AKDT
Civil Twilight 8:48 AM AKDT 5:58 PM AKDT
Nautical Twilight 7:45 AM AKDT 7:02 PM AKDT
Astronomical Twilight 6:44 AM AKDT 8:03 PM AKDT
Moon 7:52 PM AKDT (11/3) 2:59 PM AKDT (11/3)
Length of Visible Light 9h 09m
Length of Day
7h 06m
Waning Gibbous, 79% of the Moon is Illuminated
Nov 3
Waning Gibbous
Nov 6
Last Quarter
Nov 13
New
Nov 20
First Quarter
Nov 28
Full

Hourly Weather History & Observations

Time (AKDT) Temp. Windchill Dew Point Humidity Pressure Visibility Wind Dir Wind Speed Gust Speed Precip Events Conditions
12:16 AM 6.8 °F -5.9 °F 5.0 °F 92% 29.83 in 10.0 mi NE 8.1 mph - N/A   Clear
12:36 AM 6.8 °F -5.9 °F 3.2 °F 85% 29.83 in 10.0 mi NE 8.1 mph - N/A   Clear
12:56 AM 6.8 °F -4.8 °F 3.2 °F 85% 29.84 in 10.0 mi NE 6.9 mph - N/A   Clear
1:16 AM 6.8 °F -3.5 °F 6.8 °F 100% 29.84 in 10.0 mi NE 5.8 mph - N/A   Mostly Cloudy
1:36 AM 8.6 °F -3.7 °F 6.8 °F 92% 29.84 in 10.0 mi NE 8.1 mph - N/A   Overcast
1:56 AM 10.4 °F -4.1 °F 8.6 °F 92% 29.84 in 10.0 mi NE 11.5 mph 16.1 mph N/A   Overcast
2:16 AM 10.4 °F -4.8 °F 8.6 °F 92% 29.84 in 10.0 mi NE 12.7 mph - N/A   Overcast
2:36 AM 10.4 °F -6.0 °F 8.6 °F 92% 29.83 in 10.0 mi NE 15.0 mph - N/A   Overcast
2:56 AM 10.4 °F -6.0 °F 8.6 °F 92% 29.83 in 10.0 mi NE 15.0 mph - N/A   Overcast
3:16 AM 10.4 °F -4.1 °F 6.8 °F 85% 29.83 in 10.0 mi NE 11.5 mph 19.6 mph N/A   Overcast
3:36 AM 10.4 °F -5.4 °F 6.8 °F 85% 29.83 in 10.0 mi NE 13.8 mph - N/A   Overcast
3:56 AM 10.4 °F -5.4 °F 6.8 °F 85% 29.83 in 10.0 mi NE 13.8 mph - N/A   Mostly Cloudy
4:16 AM 10.4 °F -5.4 °F 6.8 °F 85% 29.84 in 10.0 mi NE 13.8 mph 19.6 mph N/A   Overcast
4:36 AM 10.4 °F -6.0 °F 6.8 °F 85% 29.84 in 10.0 mi NE 15.0 mph 20.7 mph N/A   Overcast
4:56 AM 12.2 °F -3.7 °F 6.8 °F 79% 29.84 in 10.0 mi NE 15.0 mph - N/A   Overcast
5:16 AM 12.2 °F -4.3 °F 6.8 °F 79% 29.84 in 10.0 mi NE 16.1 mph 21.9 mph N/A   Overcast
5:36 AM 12.2 °F -4.8 °F 6.8 °F 79% 29.84 in 10.0 mi NE 17.3 mph 24.2 mph N/A   Overcast
5:56 AM - - - N/A% - 10.0 mi North - - N/A   Unknown
6:16 AM - - - N/A% - 7.0 mi North - - N/A   Unknown
6:36 AM 12.2 °F -4.3 °F 5.0 °F 73% 29.85 in 6.0 mi ENE 16.1 mph 24.2 mph N/A   Overcast
6:56 AM 12.2 °F -5.3 °F 5.0 °F 73% 29.85 in 5.0 mi ENE 18.4 mph 26.5 mph N/A   Unknown
7:16 AM 12.2 °F -5.8 °F 5.0 °F 73% 29.86 in 7.0 mi ENE 19.6 mph 29.9 mph N/A   Overcast
7:36 AM 12.2 °F -4.3 °F 3.2 °F 67% 29.86 in 9.0 mi ENE 16.1 mph 23.0 mph N/A   Overcast
7:56 AM 12.2 °F -5.3 °F 3.2 °F 67% 29.86 in 10.0 mi NE 18.4 mph 27.6 mph N/A   Overcast
8:16 AM 12.2 °F -4.8 °F 3.2 °F 67% 29.86 in 10.0 mi NE 17.3 mph 26.5 mph N/A   Overcast
8:36 AM 12.2 °F -4.8 °F 3.2 °F 67% 29.86 in 10.0 mi ENE 17.3 mph 29.9 mph N/A   Overcast
8:56 AM 12.2 °F -4.8 °F 1.4 °F 62% 29.86 in 10.0 mi NE 17.3 mph 25.3 mph N/A   Overcast
9:16 AM 12.2 °F -4.8 °F 1.4 °F 62% 29.86 in 10.0 mi NE 17.3 mph 26.5 mph N/A   Overcast
9:36 AM 12.2 °F -4.3 °F 1.4 °F 62% 29.87 in 10.0 mi NE 16.1 mph 23.0 mph N/A   Overcast
9:56 AM 12.2 °F -4.3 °F 1.4 °F 62% 29.87 in 10.0 mi NE 16.1 mph 24.2 mph N/A   Overcast
10:16 AM 12.2 °F -5.3 °F -0.4 °F 57% 29.87 in 10.0 mi ENE 18.4 mph 23.0 mph N/A   Overcast
10:36 AM 12.2 °F -4.8 °F 1.4 °F 62% 29.87 in 10.0 mi ENE 17.3 mph 24.2 mph N/A   Overcast
10:56 AM 12.2 °F -3.7 °F 1.4 °F 62% 29.88 in 10.0 mi ENE 15.0 mph 28.8 mph N/A   Overcast
11:36 AM 12.2 °F -4.3 °F 1.4 °F 62% 29.88 in 10.0 mi ENE 16.1 mph 26.5 mph N/A   Overcast
11:56 AM 12.2 °F -5.8 °F -0.4 °F 57% 29.88 in 10.0 mi NE 19.6 mph 26.5 mph N/A   Overcast
12:16 PM 12.2 °F -4.8 °F 1.4 °F 62% 29.88 in 9.0 mi ENE 17.3 mph 25.3 mph N/A   Overcast
12:36 PM 12.2 °F -5.3 °F 1.4 °F 62% 29.88 in 9.0 mi ENE 18.4 mph 26.5 mph N/A   Overcast
12:56 PM 12.2 °F -4.8 °F 1.4 °F 62% 29.88 in 6.0 mi ENE 17.3 mph 26.5 mph N/A   Overcast
1:16 PM 12.2 °F -5.3 °F 1.4 °F 62% 29.89 in 7.0 mi ENE 18.4 mph 24.2 mph N/A   Overcast
1:36 PM 12.2 °F -4.8 °F 3.2 °F 67% 29.89 in 10.0 mi NE 17.3 mph 24.2 mph N/A   Overcast
1:56 PM 12.2 °F -4.3 °F 3.2 °F 67% 29.88 in 9.0 mi ENE 16.1 mph 26.5 mph N/A   Overcast
2:16 PM 12.2 °F -3.7 °F 3.2 °F 67% 29.89 in 8.0 mi NE 15.0 mph 25.3 mph N/A   Mostly Cloudy
2:36 PM 12.2 °F -5.3 °F 3.2 °F 67% 29.89 in 10.0 mi ENE 18.4 mph 25.3 mph N/A   Overcast
2:56 PM 12.2 °F -4.3 °F 3.2 °F 67% 29.89 in 10.0 mi NE 16.1 mph 24.2 mph N/A   Overcast
3:16 PM 12.2 °F -4.3 °F 3.2 °F 67% 29.88 in 10.0 mi NE 16.1 mph 26.5 mph N/A   Overcast
3:36 PM 12.2 °F -4.3 °F 3.2 °F 67% 29.88 in 9.0 mi NE 16.1 mph 23.0 mph N/A   Overcast
3:56 PM 12.2 °F -4.3 °F 5.0 °F 73% 29.88 in 10.0 mi ENE 16.1 mph - N/A   Overcast
4:16 PM 12.2 °F -4.8 °F 3.2 °F 67% 29.88 in 10.0 mi NE 17.3 mph 21.9 mph N/A   Overcast
4:36 PM 12.2 °F -3.7 °F 3.2 °F 67% 29.87 in 10.0 mi NE 15.0 mph 24.2 mph N/A   Overcast
4:56 PM 12.2 °F -4.8 °F 3.2 °F 67% 29.87 in 10.0 mi NE 17.3 mph 24.2 mph N/A   Overcast
5:16 PM 12.2 °F -3.7 °F 3.2 °F 67% 29.87 in 10.0 mi NE 15.0 mph 21.9 mph N/A   Overcast
5:36 PM 12.2 °F -4.3 °F 5.0 °F 73% 29.88 in 4.0 mi NE 16.1 mph 19.6 mph N/A   Overcast
5:56 PM 12.2 °F -4.3 °F 5.0 °F 73% 29.88 in 8.0 mi NE 16.1 mph 21.9 mph N/A   Overcast
6:16 PM 12.2 °F -4.3 °F 5.0 °F 73% 29.88 in 8.0 mi NE 16.1 mph - N/A   Overcast
6:36 PM 10.4 °F -7.2 °F 5.0 °F 79% 29.88 in 8.0 mi NE 17.3 mph 23.0 mph N/A   Overcast
6:56 PM 10.4 °F -5.4 °F 3.2 °F 73% 29.88 in 9.0 mi NE 13.8 mph 21.9 mph N/A   Overcast
7:16 PM 10.4 °F -6.0 °F 3.2 °F 73% 29.88 in 9.0 mi NE 15.0 mph 24.2 mph N/A   Overcast
7:36 PM 10.4 °F -7.2 °F 3.2 °F 73% 29.88 in 9.0 mi NE 17.3 mph 20.7 mph N/A   Overcast
7:56 PM 10.4 °F -6.6 °F 3.2 °F 73% 29.88 in 9.0 mi NE 16.1 mph 23.0 mph N/A   Overcast
8:16 PM 10.4 °F -4.8 °F 3.2 °F 73% 29.88 in 10.0 mi NE 12.7 mph 26.5 mph N/A   Overcast
8:36 PM 10.4 °F -6.6 °F 3.2 °F 73% 29.88 in 10.0 mi NE 16.1 mph 21.9 mph N/A   Mostly Cloudy
8:56 PM 10.4 °F -6.0 °F 3.2 °F 73% 29.88 in 10.0 mi NE 15.0 mph 19.6 mph N/A   Clear
9:16 PM 10.4 °F -5.4 °F 3.2 °F 73% 29.88 in 10.0 mi NE 13.8 mph - N/A   Mostly Cloudy
9:36 PM 10.4 °F -5.4 °F 1.4 °F 67% 29.88 in 10.0 mi NE 13.8 mph 20.7 mph N/A   Overcast
9:56 PM 10.4 °F -5.4 °F 3.2 °F 73% 29.88 in 10.0 mi NE 13.8 mph 20.7 mph N/A   Scattered Clouds
10:16 PM 10.4 °F -5.4 °F 3.2 °F 73% 29.88 in 10.0 mi NE 13.8 mph 23.0 mph N/A   Clear
10:36 PM 10.4 °F -4.8 °F 3.2 °F 73% 29.87 in 10.0 mi NE 12.7 mph - N/A   Scattered Clouds
10:56 PM 10.4 °F -6.0 °F 3.2 °F 73% 29.87 in 10.0 mi NE 15.0 mph 19.6 mph N/A   Overcast
11:16 PM 10.4 °F -6.0 °F 3.2 °F 73% 29.87 in 10.0 mi NE 15.0 mph 21.9 mph N/A   Mostly Cloudy
11:36 PM 10.4 °F -6.0 °F 3.2 °F 73% 29.87 in 10.0 mi NE 15.0 mph - N/A   Overcast
11:56 PM 10.4 °F -6.0 °F 3.2 °F 73% 29.87 in 8.0 mi NE 15.0 mph 21.9 mph N/A   Overcast